Time;durP1;ratioP1;P1;durP2;ratioP2;P2;SDS_P1;SDS_P2;PMS_P1;PMS_P2;Temp;Humidity;BMP_temperature;BMP_pressure;BME280_temperature;BME280_humidity;BME280_pressure;Samples;Min_cycle;Max_cycle;Signal;HPM_P1;HPM_P2
2022/07/09 00:00:29;;;;;;;8.15;6.40;;;26.00;75.80;;;;;;1924727;74;21010;-60
2022/07/09 00:02:58;;;;;;;10.00;6.58;;;25.90;75.80;;;;;;1924775;74;21064;-60
2022/07/09 00:05:28;;;;;;;7.12;5.70;;;26.00;76.00;;;;;;1924823;74;21090;-60
2022/07/09 00:07:57;;;;;;;11.78;6.33;;;26.00;76.10;;;;;;1924741;74;21057;-60
2022/07/09 00:10:27;;;;;;;12.95;6.70;;;25.90;76.00;;;;;;1924677;74;20998;-60
2022/07/09 00:12:56;;;;;;;6.65;5.95;;;25.90;76.00;;;;;;1924830;74;21015;-60
2022/07/09 00:15:25;;;;;;;7.40;6.47;;;25.90;76.00;;;;;;1924866;74;21007;-60
2022/07/09 00:17:55;;;;;;;7.55;6.85;;;25.90;76.10;;;;;;1924758;74;21097;-60
2022/07/09 00:20:24;;;;;;;8.05;6.92;;;25.90;76.10;;;;;;1924716;74;21093;-60
2022/07/09 00:22:54;;;;;;;8.03;7.30;;;25.80;76.10;;;;;;1925006;74;20998;-60
2022/07/09 00:25:23;;;;;;;8.20;7.40;;;25.80;76.30;;;;;;1924832;74;21018;-60
2022/07/09 00:27:53;;;;;;;6.80;6.20;;;25.70;76.40;;;;;;1924822;74;20999;-60
2022/07/09 00:30:22;;;;;;;6.42;5.92;;;25.70;76.60;;;;;;1924840;74;21018;-60
2022/07/09 00:32:51;;;;;;;7.20;6.50;;;25.70;76.80;;;;;;1924834;74;21072;-60
2022/07/09 00:35:21;;;;;;;9.63;7.03;;;25.60;77.00;;;;;;1924695;74;21080;-60
2022/07/09 00:37:51;;;;;;;6.87;6.17;;;25.60;77.00;;;;;;1924719;74;21011;-60
2022/07/09 00:40:20;;;;;;;11.75;7.28;;;25.50;77.20;;;;;;1924684;74;21042;-60
2022/07/09 00:42:49;;;;;;;10.75;6.40;;;25.50;77.30;;;;;;1924701;74;21023;-60
2022/07/09 00:45:19;;;;;;;10.30;7.42;;;25.50;77.40;;;;;;1924618;74;20998;-60
2022/07/09 00:47:48;;;;;;;12.78;6.78;;;25.50;77.50;;;;;;1924568;74;21115;-60
2022/07/09 00:50:17;;;;;;;9.10;6.10;;;25.50;77.60;;;;;;1921760;74;21129;-59
2022/07/09 00:52:48;;;;;;;6.78;5.72;;;25.40;77.70;;;;;;1868861;76;21100;-60
2022/07/09 00:55:18;;;;;;;7.53;5.40;;;25.40;77.90;;;;;;1905182;75;21059;-60
2022/07/09 00:57:48;;;;;;;7.12;6.50;;;25.40;78.00;;;;;;1868811;77;21053;-60
2022/07/09 01:00:18;;;;;;;8.88;6.08;;;25.40;77.90;;;;;;1905190;74;21059;-60
2022/07/09 01:02:50;;;;;;;9.95;6.50;;;25.50;78.00;;;;;;1869037;77;21034;-60
2022/07/09 01:05:19;;;;;;;9.70;7.53;;;25.50;78.00;;;;;;1905319;75;21019;-60
2022/07/09 01:07:48;;;;;;;6.83;5.83;;;25.50;77.80;;;;;;1905388;75;20999;-60
2022/07/09 01:10:18;;;;;;;11.75;6.50;;;25.50;77.80;;;;;;1868993;76;21128;-60
2022/07/09 01:12:48;;;;;;;9.35;6.53;;;25.50;77.70;;;;;;1905314;74;21098;-60
2022/07/09 01:15:17;;;;;;;7.83;6.45;;;25.50;77.70;;;;;;1868848;77;21019;-60
2022/07/09 01:17:46;;;;;;;7.20;6.47;;;25.50;77.70;;;;;;1905388;75;20995;-60
2022/07/09 01:20:17;;;;;;;6.78;6.12;;;25.50;77.70;;;;;;1869017;77;21105;-59
2022/07/09 01:22:46;;;;;;;11.12;7.53;;;25.50;77.80;;;;;;1905451;74;21516;-60
2022/07/09 01:25:17;;;;;;;9.95;7.30;;;25.40;77.70;;;;;;1905416;75;21085;-60
2022/07/09 01:27:47;;;;;;;9.23;8.18;;;25.30;77.70;;;;;;1905402;75;21016;-60
2022/07/09 01:30:29;;;;;;;9.28;7.22;;;25.20;78.00;;;;;;1868832;77;21027;-60
2022/07/09 01:32:58;;;;;;;10.43;7.25;;;25.10;78.20;;;;;;1905400;75;21082;-60
2022/07/09 01:35:28;;;;;;;10.30;6.97;;;25.00;78.30;;;;;;1905201;74;21128;-60
2022/07/09 01:37:57;;;;;;;13.28;10.40;;;24.90;78.60;;;;;;1905144;75;21382;-60
2022/07/09 01:40:27;;;;;;;9.90;7.40;;;24.90;78.80;;;;;;1905305;75;21085;-60
2022/07/09 01:42:56;;;;;;;9.15;7.42;;;24.80;79.00;;;;;;1868757;77;21022;-60
2022/07/09 01:45:26;;;;;;;7.70;6.83;;;24.80;79.20;;;;;;1905293;75;21043;-60
2022/07/09 01:47:55;;;;;;;8.25;6.40;;;24.70;79.40;;;;;;1868739;77;21026;-60
2022/07/09 01:50:24;;;;;;;7.42;6.70;;;24.70;79.60;;;;;;1905217;74;21526;-60
2022/07/09 01:52:53;;;;;;;6.40;5.70;;;24.70;79.70;;;;;;1868954;76;21062;-60
2022/07/09 01:55:23;;;;;;;7.12;5.87;;;24.80;79.70;;;;;;1905390;75;21011;-60
2022/07/09 01:57:52;;;;;;;6.97;6.33;;;24.80;79.70;;;;;;1868913;77;21002;-60
2022/07/09 02:00:23;;;;;;;7.35;6.25;;;24.90;79.60;;;;;;1905293;75;21077;-60
2022/07/09 02:02:52;;;;;;;9.00;7.05;;;24.90;79.50;;;;;;1868966;77;21026;-60
2022/07/09 02:05:22;;;;;;;10.28;7.35;;;24.90;79.40;;;;;;1905406;74;21078;-60
2022/07/09 02:07:51;;;;;;;9.10;6.97;;;24.80;79.30;;;;;;1905323;75;20995;-60
2022/07/09 02:10:20;;;;;;;8.15;6.05;;;24.80;79.50;;;;;;1868936;76;21030;-60
2022/07/09 02:12:49;;;;;;;9.45;5.83;;;24.80;79.60;;;;;;1905385;75;21406;-60
2022/07/09 02:15:19;;;;;;;8.88;6.25;;;24.80;79.60;;;;;;1905277;75;21020;-60
2022/07/09 02:17:48;;;;;;;6.60;5.95;;;24.80;79.60;;;;;;1868999;77;21038;-60
2022/07/09 02:20:18;;;;;;;12.10;6.40;;;24.90;79.50;;;;;;1905280;75;21121;-60
2022/07/09 02:22:47;;;;;;;9.10;5.62;;;25.00;79.40;;;;;;1905389;74;21008;-60
2022/07/09 02:25:17;;;;;;;9.55;6.80;;;25.00;79.40;;;;;;1868870;77;21006;-59
2022/07/09 02:27:46;;;;;;;7.12;5.90;;;25.00;79.10;;;;;;1905406;75;21012;-59
2022/07/09 02:30:16;;;;;;;7.95;6.55;;;25.00;78.90;;;;;;1868826;75;21495;-60
2022/07/09 02:32:45;;;;;;;13.70;6.70;;;24.90;78.90;;;;;;1905302;75;21015;-60
2022/07/09 02:35:14;;;;;;;7.17;6.40;;;24.90;79.20;;;;;;1905375;75;21398;-60
2022/07/09 02:37:43;;;;;;;10.05;5.92;;;24.90;79.30;;;;;;1868913;77;21072;-60
2022/07/09 02:40:14;;;;;;;8.48;6.85;;;24.80;79.40;;;;;;1905377;75;21019;-60
2022/07/09 02:42:43;;;;;;;13.72;5.90;;;24.80;79.40;;;;;;1868828;77;21065;-60
2022/07/09 02:45:13;;;;;;;9.95;6.28;;;24.80;79.50;;;;;;1905246;75;21074;-60
2022/07/09 02:47:42;;;;;;;16.57;6.97;;;24.90;79.60;;;;;;1905397;75;20992;-60
2022/07/09 02:50:11;;;;;;;7.72;6.35;;;24.90;79.50;;;;;;1905300;75;21047;-60
2022/07/09 02:52:41;;;;;;;9.68;7.28;;;25.00;79.40;;;;;;1868954;76;21063;-60
2022/07/09 02:55:10;;;;;;;7.50;6.40;;;25.00;79.40;;;;;;1905213;75;21023;-60
2022/07/09 02:57:40;;;;;;;20.37;7.47;;;25.00;79.30;;;;;;1868849;76;21072;-60
2022/07/09 03:00:09;;;;;;;7.55;6.53;;;25.00;79.20;;;;;;1905270;75;21043;-60
2022/07/09 03:02:39;;;;;;;7.00;6.30;;;25.00;79.20;;;;;;1868953;77;21077;-59
2022/07/09 03:05:09;;;;;;;9.18;7.15;;;25.10;79.30;;;;;;1905286;74;21035;-60
2022/07/09 03:07:38;;;;;;;11.18;7.28;;;25.10;79.40;;;;;;1868824;76;21027;-59
2022/07/09 03:10:07;;;;;;;7.83;7.03;;;25.10;79.40;;;;;;1905232;75;21136;-60
2022/07/09 03:12:37;;;;;;;8.45;6.85;;;25.20;79.40;;;;;;1868844;77;20998;-60
2022/07/09 03:15:07;;;;;;;11.20;7.90;;;25.20;79.30;;;;;;1905464;75;21097;-60
2022/07/09 03:17:36;;;;;;;6.83;6.22;;;25.30;79.20;;;;;;1905499;75;21007;-60
2022/07/09 03:20:06;;;;;;;19.73;7.10;;;25.30;79.00;;;;;;1868991;77;21018;-60
2022/07/09 03:22:36;;;;;;;9.08;7.53;;;25.30;79.00;;;;;;1905492;74;21519;-60
2022/07/09 03:25:06;;;;;;;7.87;7.05;;;25.30;79.00;;;;;;1905365;75;21011;-60
2022/07/09 03:27:36;;;;;;;8.03;6.30;;;25.40;78.90;;;;;;1869073;77;21018;-60
2022/07/09 03:30:07;;;;;;;10.58;6.80;;;25.40;79.00;;;;;;1905342;75;21085;-60
2022/07/09 03:32:36;;;;;;;17.55;9.68;;;25.50;79.00;;;;;;1905370;75;21023;-60
2022/07/09 03:35:06;;;;;;;11.45;7.22;;;25.50;78.80;;;;;;1905329;75;21106;-60
2022/07/09 03:37:35;;;;;;;10.80;7.50;;;25.60;78.50;;;;;;1905539;75;21008;-60
2022/07/09 03:40:06;;;;;;;8.48;6.55;;;25.70;78.40;;;;;;1905350;75;21085;-60
2022/07/09 03:42:35;;;;;;;7.58;5.92;;;25.60;78.30;;;;;;1868964;77;21076;-59
2022/07/09 03:45:05;;;;;;;11.00;7.33;;;25.60;78.40;;;;;;1905330;75;21032;-60
2022/07/09 03:47:34;;;;;;;7.22;6.53;;;25.70;78.40;;;;;;1905323;75;21097;-60
2022/07/09 03:50:04;;;;;;;19.55;7.78;;;25.70;78.20;;;;;;1905259;75;20983;-60
2022/07/09 03:52:34;;;;;;;7.17;6.50;;;25.80;78.00;;;;;;1910670;74;21047;-60
2022/07/09 03:55:03;;;;;;;10.85;7.47;;;25.80;77.80;;;;;;1924662;74;21518;-60
2022/07/09 03:57:32;;;;;;;7.30;6.60;;;25.90;77.70;;;;;;1924615;74;21023;-59
2022/07/09 04:00:02;;;;;;;13.20;6.72;;;25.90;77.60;;;;;;1924686;74;21034;-60
2022/07/09 04:02:33;;;;;;;9.20;6.30;;;25.90;77.50;;;;;;1923391;74;21026;-60
2022/07/09 04:05:02;;;;;;;8.60;6.58;;;25.80;77.60;;;;;;1924704;74;21015;-60
2022/07/09 04:07:31;;;;;;;9.00;6.70;;;25.70;78.00;;;;;;1924674;74;20999;-60
2022/07/09 04:10:01;;;;;;;9.75;5.90;;;25.70;78.30;;;;;;1924526;74;21088;-60
2022/07/09 04:12:30;;;;;;;8.63;6.58;;;25.60;78.60;;;;;;1924579;74;21061;-60
2022/07/09 04:14:59;;;;;;;17.95;10.72;;;25.60;78.80;;;;;;1924443;74;20995;-60
2022/07/09 04:17:28;;;;;;;14.98;10.45;;;25.50;78.80;;;;;;1924689;74;21124;-60
2022/07/09 04:19:58;;;;;;;20.45;13.55;;;25.60;79.20;;;;;;1924667;74;21068;-60
2022/07/09 04:22:28;;;;;;;23.47;13.72;;;25.60;79.30;;;;;;1924623;74;21019;-60
2022/07/09 04:24:57;;;;;;;13.85;10.60;;;25.70;79.20;;;;;;1924757;74;21145;-60
2022/07/09 04:27:26;;;;;;;24.40;10.75;;;25.80;79.10;;;;;;1924784;74;21554;-60
2022/07/09 04:29:56;;;;;;;15.80;10.95;;;26.00;78.80;;;;;;1924744;74;21018;-60
2022/07/09 04:32:25;;;;;;;13.08;9.53;;;26.10;78.40;;;;;;1924870;74;21031;-60
2022/07/09 04:34:55;;;;;;;10.68;7.03;;;26.20;78.00;;;;;;1924591;74;21027;-60
2022/07/09 04:37:24;;;;;;;9.75;7.30;;;26.30;77.70;;;;;;1924635;74;21002;-59
2022/07/09 04:39:54;;;;;;;8.20;6.47;;;26.40;77.40;;;;;;1924685;74;21060;-60
2022/07/09 04:42:23;;;;;;;14.00;6.72;;;26.50;77.10;;;;;;1924655;74;20991;-60
2022/07/09 04:44:53;;;;;;;7.15;5.50;;;26.60;76.80;;;;;;1924664;74;21076;-60
2022/07/09 04:47:22;;;;;;;5.70;5.12;;;26.70;76.50;;;;;;1924676;74;21018;-60
2022/07/09 04:49:51;;;;;;;5.53;4.67;;;26.70;76.10;;;;;;1924495;74;21093;-59
2022/07/09 04:52:21;;;;;;;6.05;4.50;;;26.90;76.30;;;;;;1924643;74;21038;-60
2022/07/09 04:54:50;;;;;;;18.00;5.33;;;27.00;75.20;;;;;;1924556;74;21046;-60
2022/07/09 04:57:20;;;;;;;13.00;5.20;;;27.10;75.10;;;;;;1924536;74;21064;-60
2022/07/09 04:59:49;;;;;;;6.60;3.95;;;27.20;74.50;;;;;;1924615;74;21128;-60
2022/07/09 05:02:18;;;;;;;5.60;3.92;;;27.40;73.80;;;;;;1924617;74;21070;-60
2022/07/09 05:04:48;;;;;;;8.08;4.65;;;27.50;73.30;;;;;;1924670;74;21426;-60
2022/07/09 05:07:17;;;;;;;10.13;4.87;;;27.60;72.90;;;;;;1924683;74;21031;-60
2022/07/09 05:09:46;;;;;;;8.70;4.10;;;27.80;72.20;;;;;;1924561;74;21090;-60
2022/07/09 05:12:16;;;;;;;6.62;3.80;;;27.90;71.50;;;;;;1924537;74;21002;-60
2022/07/09 05:14:45;;;;;;;10.35;5.60;;;27.90;71.20;;;;;;1924422;74;21031;-60
2022/07/09 05:17:14;;;;;;;5.03;3.90;;;27.90;71.00;;;;;;1924641;74;21061;-59
2022/07/09 05:19:44;;;;;;;10.80;4.85;;;28.00;71.10;;;;;;1924522;74;21023;-60
2022/07/09 05:22:13;;;;;;;7.00;4.50;;;28.00;70.90;;;;;;1924510;74;21108;-60
2022/07/09 05:24:43;;;;;;;10.55;4.22;;;28.20;70.70;;;;;;1924456;74;21010;-60
2022/07/09 05:27:12;;;;;;;5.90;3.80;;;28.30;70.30;;;;;;1924716;74;21084;-60
2022/07/09 05:29:41;;;;;;;7.60;4.37;;;28.40;69.70;;;;;;1924616;74;21084;-60
2022/07/09 05:32:11;;;;;;;4.40;3.98;;;28.50;69.20;;;;;;1924767;74;21489;-60
2022/07/09 05:34:40;;;;;;;20.02;5.20;;;28.50;68.90;;;;;;1924620;74;21003;-60
2022/07/09 05:37:10;;;;;;;4.42;3.95;;;28.50;68.50;;;;;;1924596;74;21136;-60
2022/07/09 05:39:39;;;;;;;5.85;3.98;;;28.50;68.50;;;;;;1924467;74;21119;-60
2022/07/09 05:42:09;;;;;;;8.35;4.45;;;28.50;68.30;;;;;;1924604;74;21033;-60
2022/07/09 05:44:38;;;;;;;9.10;7.37;;;28.50;68.00;;;;;;1924631;74;21011;-60
2022/07/09 05:47:08;;;;;;;8.25;4.33;;;28.50;68.20;;;;;;1924717;74;21003;-60
2022/07/09 05:49:37;;;;;;;5.17;4.42;;;28.40;68.10;;;;;;1924766;74;21031;-60
2022/07/09 05:52:07;;;;;;;5.30;4.22;;;28.40;68.20;;;;;;1887920;76;21017;-60
2022/07/09 05:54:36;;;;;;;11.30;4.80;;;28.50;68.00;;;;;;1873940;76;21114;-60
2022/07/09 05:57:06;;;;;;;5.95;4.08;;;28.50;67.90;;;;;;1871376;77;21067;-60
2022/07/09 05:59:36;;;;;;;7.35;4.35;;;28.40;68.00;;;;;;1871212;77;21023;-60
2022/07/09 06:02:06;;;;;;;10.20;4.95;;;28.50;68.30;;;;;;1871260;77;21035;-60
2022/07/09 06:04:36;;;;;;;12.30;5.83;;;28.60;68.00;;;;;;1871270;77;21234;-60
2022/07/09 06:07:05;;;;;;;11.10;4.20;;;28.70;68.00;;;;;;1871164;77;21007;-60
2022/07/09 06:09:35;;;;;;;6.78;3.90;;;28.90;67.60;;;;;;1871219;77;21055;-60
2022/07/09 06:12:05;;;;;;;8.10;4.10;;;29.10;67.30;;;;;;1871224;77;21011;-60
2022/07/09 06:14:34;;;;;;;14.33;4.95;;;29.20;66.40;;;;;;1871108;77;21055;-60
2022/07/09 06:17:07;;;;;;;5.17;4.25;;;29.30;65.80;;;;;;1871346;77;21453;-60
2022/07/09 06:19:36;;;;;;;5.67;3.77;;;29.40;65.50;;;;;;1871264;77;21424;-60
2022/07/09 06:22:06;;;;;;;7.53;4.50;;;29.50;65.20;;;;;;1871379;77;21085;-60
2022/07/09 06:24:36;;;;;;;9.75;3.72;;;29.60;64.50;;;;;;1871324;77;21011;-60
2022/07/09 06:27:05;;;;;;;7.25;3.70;;;29.70;63.90;;;;;;1871238;77;21039;-60
2022/07/09 06:29:35;;;;;;;6.28;4.33;;;29.60;63.70;;;;;;1871339;77;21101;-60
2022/07/09 06:32:04;;;;;;;11.65;6.65;;;29.70;63.80;;;;;;1871185;77;21085;-60
2022/07/09 06:34:34;;;;;;;6.50;4.50;;;29.70;63.40;;;;;;1871228;77;21093;-60
2022/07/09 06:37:03;;;;;;;7.40;3.72;;;29.80;63.30;;;;;;1871210;77;21121;-60
2022/07/09 06:39:45;;;;;;;9.45;4.70;;;29.90;63.20;;;;;;1871465;77;21109;-60
2022/07/09 06:42:16;;;;;;;8.90;5.00;;;29.90;62.80;;;;;;1871362;77;21043;-60
2022/07/09 06:44:47;;;;;;;17.48;5.35;;;29.90;63.20;;;;;;1871121;76;21158;-60
2022/07/09 06:47:16;;;;;;;13.50;4.78;;;29.90;63.10;;;;;;1871324;77;21429;-60
2022/07/09 06:49:46;;;;;;;12.98;4.83;;;30.00;63.10;;;;;;1871226;77;21031;-60
2022/07/09 06:52:15;;;;;;;5.08;3.95;;;30.10;62.80;;;;;;1871291;77;21101;-60
2022/07/09 06:54:44;;;;;;;8.50;4.10;;;30.10;62.40;;;;;;1867192;76;21129;-61
2022/07/09 06:57:15;;;;;;;12.65;5.75;;;30.20;62.00;;;;;;1905259;75;21016;-61
2022/07/09 06:59:49;;;;;;;13.43;4.83;;;30.10;62.00;;;;;;1905382;75;21097;-60
2022/07/09 07:02:19;;;;;;;5.35;3.62;;;30.10;62.60;;;;;;1904108;74;21019;-60
2022/07/09 07:04:48;;;;;;;10.72;6.60;;;30.20;62.30;;;;;;1868966;77;21014;-60
2022/07/09 07:07:18;;;;;;;10.30;4.53;;;30.20;62.40;;;;;;1905364;74;21023;-61
2022/07/09 07:09:47;;;;;;;5.58;4.17;;;30.20;62.40;;;;;;1905330;75;21130;-60
2022/07/09 07:12:16;;;;;;;5.90;4.60;;;30.20;62.70;;;;;;1868905;77;21034;-61
2022/07/09 07:14:46;;;;;;;9.93;4.40;;;30.20;62.70;;;;;;1905156;75;21019;-61
2022/07/09 07:17:15;;;;;;;9.38;4.45;;;30.20;62.70;;;;;;1868830;77;21014;-60
2022/07/09 07:19:45;;;;;;;7.53;4.10;;;30.30;62.60;;;;;;1905274;75;21093;-61
2022/07/09 07:22:14;;;;;;;6.08;4.30;;;30.30;62.50;;;;;;1868966;77;20994;-61
2022/07/09 07:24:43;;;;;;;18.92;5.97;;;30.30;62.50;;;;;;1905375;75;21004;-60
2022/07/09 07:27:13;;;;;;;16.05;6.05;;;30.30;62.80;;;;;;1905415;74;21495;-60
2022/07/09 07:29:42;;;;;;;7.67;4.83;;;30.30;62.90;;;;;;1905302;75;21065;-60
2022/07/09 07:32:12;;;;;;;13.55;5.05;;;30.30;63.10;;;;;;1905312;75;21016;-61
2022/07/09 07:34:41;;;;;;;14.05;5.17;;;30.20;63.00;;;;;;1905303;75;21449;-61
2022/07/09 07:37:10;;;;;;;9.20;4.40;;;30.20;62.90;;;;;;1905343;75;21042;-61
2022/07/09 07:39:40;;;;;;;7.03;4.22;;;30.30;62.80;;;;;;1868851;75;21010;-60
2022/07/09 07:42:10;;;;;;;12.13;4.45;;;30.40;62.30;;;;;;1905345;75;21039;-61
2022/07/09 07:44:39;;;;;;;5.03;4.12;;;30.50;61.60;;;;;;1905309;75;21019;-60
2022/07/09 07:47:09;;;;;;;6.97;4.03;;;30.60;61.20;;;;;;1868808;75;20982;-60
2022/07/09 07:49:38;;;;;;;6.40;4.10;;;30.80;60.70;;;;;;1905128;75;21093;-61
2022/07/09 07:52:08;;;;;;;10.30;5.67;;;30.80;60.30;;;;;;1868738;77;21023;-61
2022/07/09 07:54:37;;;;;;;6.47;4.17;;;30.80;59.80;;;;;;1904969;74;21083;-60
2022/07/09 07:57:07;;;;;;;10.05;4.95;;;30.70;59.50;;;;;;1905139;75;21089;-61
2022/07/09 07:59:36;;;;;;;4.92;3.90;;;30.80;59.70;;;;;;1901790;75;21106;-61
2022/07/09 08:02:06;;;;;;;7.97;4.15;;;30.80;59.70;;;;;;1868804;77;20998;-61
2022/07/09 08:04:35;;;;;;;10.35;4.60;;;30.90;59.60;;;;;;1905410;75;21020;-61
2022/07/09 08:07:04;;;;;;;12.98;5.87;;;31.00;59.20;;;;;;1905298;75;20991;-61
2022/07/09 08:09:34;;;;;;;8.43;4.20;;;31.10;58.90;;;;;;1905236;74;21023;-61
2022/07/09 08:12:03;;;;;;;11.08;5.80;;;31.20;58.30;;;;;;1868766;77;21006;-60
2022/07/09 08:14:33;;;;;;;6.55;4.30;;;31.30;58.10;;;;;;1905193;75;21027;-60
2022/07/09 08:17:02;;;;;;;5.20;4.10;;;31.30;57.70;;;;;;1868816;77;21096;-61
2022/07/09 08:19:31;;;;;;;9.08;5.17;;;31.20;57.70;;;;;;1905190;75;21043;-60
2022/07/09 08:22:01;;;;;;;7.08;4.60;;;31.10;57.70;;;;;;1905181;74;21031;-60
2022/07/09 08:24:30;;;;;;;24.65;5.53;;;31.20;57.70;;;;;;1868764;77;21027;-60
2022/07/09 08:26:59;;;;;;;7.45;4.78;;;31.20;57.50;;;;;;1905131;75;21023;-60
2022/07/09 08:29:29;;;;;;;5.42;4.03;;;31.30;57.40;;;;;;1868784;77;21088;-60
2022/07/09 08:31:58;;;;;;;15.20;4.50;;;31.40;57.30;;;;;;1905132;75;21019;-60
2022/07/09 08:34:33;;;;;;;8.65;4.08;;;31.60;57.90;;;;;;1824595;71;21557;-60
2022/07/09 08:37:03;;;;;;;16.67;6.28;;;31.80;57.10;;;;;;1881677;76;21050;-59
2022/07/09 08:39:32;;;;;;;9.88;6.85;;;31.90;56.80;;;;;;1881522;75;21045;-60
2022/07/09 08:42:03;;;;;;;10.32;4.00;;;32.00;56.80;;;;;;1881748;76;21131;-60
2022/07/09 08:44:35;;;;;;;14.28;5.60;;;32.10;56.00;;;;;;1881600;76;21072;-59
2022/07/09 08:47:05;;;;;;;6.25;4.30;;;32.10;55.20;;;;;;1881587;76;21057;-60
2022/07/09 08:49:35;;;;;;;9.35;4.92;;;32.10;55.00;;;;;;1881533;76;21103;-60
2022/07/09 08:52:05;;;;;;;14.80;5.92;;;32.10;54.90;;;;;;1881467;76;21030;-60
2022/07/09 08:54:42;;;;;;;16.07;4.60;;;32.20;54.90;;;;;;1881594;76;21456;-59
2022/07/09 08:57:07;;;;;;;6.97;4.45;;;32.20;54.80;;;;;;1882057;74;21186;-59
2022/07/09 08:59:36;;;;;;;10.78;5.35;;;32.30;55.00;;;;;;1881736;76;21100;-59
2022/07/09 09:02:08;;;;;;;8.60;4.45;;;32.40;55.10;;;;;;1881617;76;21095;-60
2022/07/09 09:04:39;;;;;;;6.75;4.20;;;32.50;54.60;;;;;;1881743;76;21025;-60
2022/07/09 09:07:18;;;;;;;13.65;6.42;;;32.50;54.40;;;;;;1881749;76;21072;-60
2022/07/09 09:09:47;;;;;;;17.00;6.50;;;32.30;54.80;;;;;;1881854;76;21009;-60
2022/07/09 09:12:18;;;;;;;13.72;5.60;;;32.20;55.30;;;;;;1881955;76;21154;-60
2022/07/09 09:14:50;;;;;;;5.75;4.60;;;32.20;55.70;;;;;;1880298;76;21467;-59
2022/07/09 09:17:19;;;;;;;5.95;4.15;;;32.20;55.40;;;;;;1881784;75;21057;-59
2022/07/09 09:19:49;;;;;;;6.72;4.00;;;32.40;55.20;;;;;;1881888;76;21521;-60
2022/07/09 09:22:18;;;;;;;7.30;4.10;;;32.60;54.70;;;;;;1881751;76;21041;-60
2022/07/09 09:27:33;;;;;;;7.97;5.08;;;32.70;54.50;;;;;;1866520;75;21060;-59
2022/07/09 09:30:03;;;;;;;4.65;3.83;;;32.80;54.70;;;;;;1867410;77;21057;-60
2022/07/09 09:32:32;;;;;;;6.70;5.30;;;32.80;54.60;;;;;;1867384;76;21005;-60
2022/07/09 09:35:03;;;;;;;6.42;4.62;;;32.70;54.30;;;;;;1867444;77;21021;-60
2022/07/09 09:37:33;;;;;;;5.45;4.40;;;32.70;54.40;;;;;;1867583;76;21025;-60
2022/07/09 09:40:10;;;;;;;18.70;4.80;;;32.60;54.40;;;;;;1867422;76;21037;-60
2022/07/09 09:42:44;;;;;;;6.62;4.62;;;32.50;54.50;;;;;;1867549;76;21451;-60
2022/07/09 09:45:15;;;;;;;8.60;4.70;;;32.50;55.00;;;;;;1867611;77;21084;-60
2022/07/09 09:47:49;;;;;;;7.33;4.40;;;32.60;55.00;;;;;;1867463;76;21029;-60
2022/07/09 09:50:23;;;;;;;8.78;5.40;;;32.70;54.90;;;;;;1867673;76;21041;-60
2022/07/09 09:52:52;;;;;;;;;;;32.70;54.70;;;;;;1909229;75;21466;-60
2022/07/09 09:55:22;;;;;;;16.50;4.85;;;32.70;54.50;;;;;;1906270;75;20342;-60
2022/07/09 09:57:53;;;;;;;6.42;5.35;;;32.70;55.00;;;;;;1867330;76;21037;-60
2022/07/09 10:00:25;;;;;;;6.45;4.30;;;32.60;54.70;;;;;;1867240;77;21045;-60
2022/07/09 10:02:53;;;;;;;7.85;4.95;;;32.60;55.00;;;;;;1867266;77;21839;-60
2022/07/09 10:05:23;;;;;;;8.65;4.60;;;32.60;55.40;;;;;;1906419;75;20972;-60
2022/07/09 10:07:52;;;;;;;9.05;4.60;;;32.60;55.50;;;;;;1867519;75;21045;-60
2022/07/09 10:10:23;;;;;;;14.00;6.12;;;32.60;55.40;;;;;;1867442;76;21013;-60
2022/07/09 10:12:52;;;;;;;6.08;4.42;;;32.70;55.10;;;;;;1867360;77;21005;-60
2022/07/09 10:15:29;;;;;;;6.45;4.83;;;32.80;54.90;;;;;;1867379;77;21013;-60
2022/07/09 10:17:58;;;;;;;12.30;5.03;;;32.90;54.50;;;;;;1867378;77;21045;-60
2022/07/09 10:20:34;;;;;;;9.55;4.55;;;33.00;54.50;;;;;;1867406;76;21120;-60
2022/07/09 10:23:04;;;;;;;36.23;23.62;;;33.20;54.50;;;;;;1867217;77;21596;-60
2022/07/09 10:25:47;;;;;;;13.32;4.83;;;33.20;54.20;;;;;;1906307;75;21418;-60
2022/07/09 10:28:18;;;;;;;10.65;4.78;;;33.20;54.30;;;;;;1867415;77;21127;-60
2022/07/09 10:30:47;;;;;;;6.70;4.25;;;33.30;54.30;;;;;;1866999;77;21044;-60
2022/07/09 10:33:22;;;;;;;14.07;5.67;;;33.30;54.10;;;;;;1867341;77;21045;-60
2022/07/09 10:35:52;;;;;;;11.73;4.33;;;33.40;53.80;;;;;;1867400;77;21558;-60
2022/07/09 10:38:24;;;;;;;10.03;4.92;;;33.50;53.80;;;;;;1867334;77;21048;-60
2022/07/09 10:41:01;;;;;;;7.78;4.87;;;33.50;53.70;;;;;;1867539;77;21057;-61
2022/07/09 10:43:47;;;;;;;9.73;4.47;;;33.60;53.60;;;;;;1867383;77;21025;-61
2022/07/09 10:46:17;;;;;;;8.20;5.15;;;33.70;53.40;;;;;;1867446;77;21061;-60
2022/07/09 10:48:47;;;;;;;7.20;4.45;;;33.80;52.40;;;;;;1867368;77;21115;-60
2022/07/09 10:51:22;;;;;;;10.68;4.58;;;33.70;52.50;;;;;;1867442;76;21095;-60
2022/07/09 10:53:52;;;;;;;7.37;4.45;;;33.70;52.90;;;;;;1867359;77;21041;-60
2022/07/09 10:56:22;;;;;;;15.20;5.25;;;33.80;52.80;;;;;;1867326;76;21013;-60
2022/07/09 10:58:52;;;;;;;6.80;3.80;;;33.80;52.60;;;;;;1867307;76;21094;-60
2022/07/09 11:01:23;;;;;;;19.35;7.67;;;33.80;52.60;;;;;;1867390;75;21427;-60
2022/07/09 11:03:53;;;;;;;6.78;4.85;;;33.80;52.50;;;;;;1867263;77;21049;-60
2022/07/09 11:06:22;;;;;;;10.45;4.55;;;33.80;52.30;;;;;;1867408;77;21107;-61
2022/07/09 11:08:52;;;;;;;6.22;4.00;;;33.80;52.50;;;;;;1867356;75;21040;-61
2022/07/09 11:11:24;;;;;;;6.30;4.62;;;33.90;52.50;;;;;;1867425;76;21451;-61
2022/07/09 11:13:57;;;;;;;6.90;5.15;;;33.90;52.40;;;;;;1867276;76;21187;-61
2022/07/09 11:16:27;;;;;;;6.37;4.37;;;33.90;52.20;;;;;;1867455;77;21440;-61
2022/07/09 11:18:57;;;;;;;5.87;4.45;;;33.80;52.00;;;;;;1867317;77;21041;-61
2022/07/09 11:21:27;;;;;;;8.78;4.25;;;33.60;52.00;;;;;;1867466;77;21032;-61
2022/07/09 11:23:56;;;;;;;10.95;4.85;;;33.50;52.40;;;;;;1867181;77;21107;-61
2022/07/09 11:26:26;;;;;;;6.20;4.42;;;33.30;52.80;;;;;;1867483;76;21069;-59
2022/07/09 11:28:55;;;;;;;11.35;5.22;;;33.10;52.90;;;;;;1870103;77;21069;-60
2022/07/09 11:31:25;;;;;;;9.63;5.15;;;32.90;53.80;;;;;;1838758;78;21099;-60
2022/07/09 11:34:12;;;;;;;11.35;4.30;;;32.70;54.30;;;;;;1837228;78;21058;-60
2022/07/09 11:36:44;;;;;;;7.33;4.87;;;32.60;54.90;;;;;;1870056;77;21023;-61
2022/07/09 11:39:36;;;;;;;5.62;4.65;;;32.50;55.20;;;;;;1870049;77;21041;-61
2022/07/09 11:42:06;;;;;;;6.40;4.53;;;32.50;55.20;;;;;;1838793;78;21131;-61
2022/07/09 11:44:35;;;;;;;7.35;5.25;;;32.50;55.30;;;;;;1865182;77;21105;-61
2022/07/09 11:47:09;;;;;;;6.30;5.50;;;32.50;55.30;;;;;;1865140;77;21043;-61
2022/07/09 11:49:40;;;;;;;9.73;4.60;;;32.50;55.40;;;;;;1865409;77;21035;-62
2022/07/09 11:52:23;;;;;;;9.53;4.75;;;32.40;55.30;;;;;;1865200;77;21050;-61
2022/07/09 11:55:06;;;;;;;6.35;3.95;;;32.50;55.40;;;;;;1865190;77;21019;-61
2022/07/09 11:57:36;;;;;;;7.80;4.80;;;32.60;55.30;;;;;;1865217;77;21136;-62
2022/07/09 12:00:08;;;;;;;8.40;5.80;;;32.60;55.60;;;;;;1865208;77;21026;-61
2022/07/09 12:02:42;;;;;;;8.73;5.22;;;32.60;55.70;;;;;;1865260;77;21058;-61
2022/07/09 12:05:13;;;;;;;8.88;5.10;;;32.50;56.00;;;;;;1865283;77;21042;-61
2022/07/09 12:07:45;;;;;;;9.85;5.33;;;32.50;56.60;;;;;;1865329;77;21527;-61
2022/07/09 12:10:15;;;;;;;10.30;6.03;;;32.40;57.20;;;;;;1864338;76;21110;-59
2022/07/09 12:12:44;;;;;;;10.40;5.40;;;32.50;55.80;;;;;;1865296;77;21145;-59
2022/07/09 12:15:14;;;;;;;14.87;5.53;;;32.50;55.60;;;;;;1865368;77;21117;-59
2022/07/09 12:17:43;;;;;;;7.42;4.55;;;32.50;56.00;;;;;;1865253;77;21027;-60
2022/07/09 12:20:13;;;;;;;10.78;5.17;;;32.60;55.90;;;;;;1865332;77;21015;-60
2022/07/09 12:22:42;;;;;;;6.58;5.15;;;32.60;55.80;;;;;;1865311;77;21023;-60
2022/07/09 12:25:11;;;;;;;6.15;4.60;;;32.50;55.60;;;;;;1865205;77;21096;-60
2022/07/09 12:27:40;;;;;;;7.17;5.00;;;32.40;55.60;;;;;;1864261;76;21497;-60
2022/07/09 12:30:11;;;;;;;10.55;6.37;;;32.40;56.40;;;;;;1862086;77;21579;-60
2022/07/09 12:32:41;;;;;;;12.23;6.65;;;32.40;56.00;;;;;;1862002;77;21022;-60
2022/07/09 12:35:11;;;;;;;8.45;5.92;;;32.40;55.90;;;;;;1862008;77;21047;-60
2022/07/09 12:37:41;;;;;;;10.30;5.50;;;32.40;56.30;;;;;;1861911;77;21043;-60
2022/07/09 12:40:11;;;;;;;14.63;6.62;;;32.40;55.80;;;;;;1862015;77;21092;-60
2022/07/09 12:42:41;;;;;;;14.30;6.67;;;32.50;55.70;;;;;;1862042;77;21043;-60
2022/07/09 12:45:12;;;;;;;10.68;5.87;;;32.40;55.70;;;;;;1861944;77;21059;-60
2022/07/09 12:47:41;;;;;;;8.68;5.87;;;32.40;55.90;;;;;;1862056;77;21113;-60
2022/07/09 12:50:11;;;;;;;8.20;4.78;;;32.40;56.10;;;;;;1861994;77;21046;-60
2022/07/09 12:52:40;;;;;;;9.40;5.22;;;32.50;56.10;;;;;;1861990;77;21121;-60
2022/07/09 12:55:10;;;;;;;11.93;4.50;;;32.50;56.00;;;;;;1861813;77;21030;-60
2022/07/09 12:57:39;;;;;;;9.88;4.90;;;32.50;55.40;;;;;;1861922;77;21167;-60
2022/07/09 13:00:09;;;;;;;6.05;4.80;;;32.40;55.80;;;;;;1861851;77;21110;-60